sensor_id;sensor_type;location;lat;lon;timestamp;pressure;altitude;pressure_sealevel;temperature;humidity
2268;BME280;11052;43.338;25.502;2022-10-22T00:02:19;101381.69;;;5.24;100.00
2268;BME280;11052;43.338;25.502;2022-10-22T00:04:46;101390.25;;;5.22;100.00
2268;BME280;11052;43.338;25.502;2022-10-22T00:07:15;101379.13;;;5.23;100.00
2268;BME280;11052;43.338;25.502;2022-10-22T00:09:44;101373.00;;;5.07;100.00
2268;BME280;11052;43.338;25.502;2022-10-22T00:12:12;101365.25;;;5.03;100.00
2268;BME280;11052;43.338;25.502;2022-10-22T00:14:39;101367.84;;;5.06;100.00
2268;BME280;11052;43.338;25.502;2022-10-22T00:17:06;101365.25;;;5.04;100.00
2268;BME280;11052;43.338;25.502;2022-10-22T00:19:34;101359.28;;;5.07;100.00
2268;BME280;11052;43.338;25.502;2022-10-22T00:22:01;101361.88;;;5.07;100.00
2268;BME280;11052;43.338;25.502;2022-10-22T00:24:30;101350.63;;;4.97;100.00
2268;BME280;11052;43.338;25.502;2022-10-22T00:26:59;101343.69;;;4.87;100.00
2268;BME280;11052;43.338;25.502;2022-10-22T00:29:26;101341.09;;;4.85;100.00
2268;BME280;11052;43.338;25.502;2022-10-22T00:31:54;101336.78;;;4.83;100.00
2268;BME280;11052;43.338;25.502;2022-10-22T00:34:22;101340.22;;;4.85;100.00
2268;BME280;11052;43.338;25.502;2022-10-22T00:36:50;101339.38;;;4.86;100.00
2268;BME280;11052;43.338;25.502;2022-10-22T00:39:20;101334.25;;;4.84;100.00
2268;BME280;11052;43.338;25.502;2022-10-22T00:41:49;101324.84;;;4.86;100.00
2268;BME280;11052;43.338;25.502;2022-10-22T00:47:22;101328.31;;;4.91;100.00
2268;BME280;11052;43.338;25.502;2022-10-22T00:49:51;101327.50;;;4.96;100.00
2268;BME280;11052;43.338;25.502;2022-10-22T00:52:19;101321.50;;;4.95;100.00
2268;BME280;11052;43.338;25.502;2022-10-22T00:54:47;101316.34;;;4.93;100.00
2268;BME280;11052;43.338;25.502;2022-10-22T00:57:15;101317.97;;;4.85;100.00
2268;BME280;11052;43.338;25.502;2022-10-22T00:59:43;101317.13;;;4.86;100.00
2268;BME280;11052;43.338;25.502;2022-10-22T01:02:10;101317.16;;;4.89;100.00
2268;BME280;11052;43.338;25.502;2022-10-22T01:04:39;101313.72;;;4.89;100.00
2268;BME280;11052;43.338;25.502;2022-10-22T01:07:08;101315.44;;;4.87;100.00
2268;BME280;11052;43.338;25.502;2022-10-22T01:09:42;101312.84;;;4.85;100.00
2268;BME280;11052;43.338;25.502;2022-10-22T01:12:17;101307.69;;;4.85;100.00
2268;BME280;11052;43.338;25.502;2022-10-22T01:14:56;101313.63;;;4.80;100.00
2268;BME280;11052;43.338;25.502;2022-10-22T01:17:32;101311.97;;;4.85;100.00
2268;BME280;11052;43.338;25.502;2022-10-22T01:20:12;101310.28;;;4.85;100.00
2268;BME280;11052;43.338;25.502;2022-10-22T01:22:54;101309.34;;;4.77;100.00
2268;BME280;11052;43.338;25.502;2022-10-22T01:25:30;101316.13;;;4.72;100.00
2268;BME280;11052;43.338;25.502;2022-10-22T01:28:06;101311.84;;;4.73;100.00
2268;BME280;11052;43.338;25.502;2022-10-22T01:30:39;101313.53;;;4.69;100.00
2268;BME280;11052;43.338;25.502;2022-10-22T01:33:09;101310.00;;;4.58;100.00
2268;BME280;11052;43.338;25.502;2022-10-22T01:35:41;101305.66;;;4.52;100.00
2268;BME280;11052;43.338;25.502;2022-10-22T01:38:12;101305.66;;;4.54;100.00
2268;BME280;11052;43.338;25.502;2022-10-22T01:40:41;101299.66;;;4.52;100.00
2268;BME280;11052;43.338;25.502;2022-10-22T01:43:10;101297.06;;;4.50;100.00
2268;BME280;11052;43.338;25.502;2022-10-22T01:45:42;101294.44;;;4.46;100.00
2268;BME280;11052;43.338;25.502;2022-10-22T01:48:25;101301.28;;;4.45;100.00
2268;BME280;11052;43.338;25.502;2022-10-22T01:51:12;101293.56;;;4.44;100.00
2268;BME280;11052;43.338;25.502;2022-10-22T01:53:50;101301.25;;;4.41;100.00
2268;BME280;11052;43.338;25.502;2022-10-22T01:56:40;101294.44;;;4.44;100.00
2268;BME280;11052;43.338;25.502;2022-10-22T01:59:16;101295.25;;;4.40;100.00
2268;BME280;11052;43.338;25.502;2022-10-22T02:01:52;101295.13;;;4.28;100.00
2268;BME280;11052;43.338;25.502;2022-10-22T02:04:27;101301.13;;;4.28;100.00
2268;BME280;11052;43.338;25.502;2022-10-22T02:06:58;101304.50;;;4.24;100.00
2268;BME280;11052;43.338;25.502;2022-10-22T02:09:27;101301.16;;;4.32;100.00
2268;BME280;11052;43.338;25.502;2022-10-22T02:11:57;101300.31;;;4.34;100.00
2268;BME280;11052;43.338;25.502;2022-10-22T02:14:27;101302.00;;;4.31;100.00
2268;BME280;11052;43.338;25.502;2022-10-22T02:16:57;101314.00;;;4.32;100.00
2268;BME280;11052;43.338;25.502;2022-10-22T02:19:28;101305.47;;;4.33;100.00
2268;BME280;11052;43.338;25.502;2022-10-22T02:22:01;101313.13;;;4.30;100.00
2268;BME280;11052;43.338;25.502;2022-10-22T02:24:29;101308.72;;;4.19;100.00
2268;BME280;11052;43.338;25.502;2022-10-22T02:27:05;101300.97;;;4.15;100.00
2268;BME280;11052;43.338;25.502;2022-10-22T02:29:36;101294.16;;;4.18;100.00
2268;BME280;11052;43.338;25.502;2022-10-22T02:32:23;101294.13;;;4.15;100.00
2268;BME280;11052;43.338;25.502;2022-10-22T02:34:55;101295.81;;;4.13;100.00
2268;BME280;11052;43.338;25.502;2022-10-22T02:37:23;101291.56;;;4.15;100.00
2268;BME280;11052;43.338;25.502;2022-10-22T02:39:52;101289.06;;;4.21;100.00
2268;BME280;11052;43.338;25.502;2022-10-22T02:42:22;101293.34;;;4.21;100.00
2268;BME280;11052;43.338;25.502;2022-10-22T02:44:50;101281.34;;;4.18;100.00
2268;BME280;11052;43.338;25.502;2022-10-22T02:47:19;101283.06;;;4.19;100.00
2268;BME280;11052;43.338;25.502;2022-10-22T02:49:46;101288.22;;;4.21;100.00
2268;BME280;11052;43.338;25.502;2022-10-22T02:52:13;101293.31;;;4.19;100.00
2268;BME280;11052;43.338;25.502;2022-10-22T02:54:40;101292.50;;;4.23;100.00
2268;BME280;11052;43.338;25.502;2022-10-22T02:57:07;101289.91;;;4.20;100.00
2268;BME280;11052;43.338;25.502;2022-10-22T02:59:35;101283.84;;;4.14;100.00
2268;BME280;11052;43.338;25.502;2022-10-22T03:02:02;101286.41;;;4.14;100.00
2268;BME280;11052;43.338;25.502;2022-10-22T03:04:31;101271.88;;;4.13;100.00
2268;BME280;11052;43.338;25.502;2022-10-22T03:06:58;101259.00;;;4.11;100.00
2268;BME280;11052;43.338;25.502;2022-10-22T03:09:26;101259.84;;;4.09;100.00
2268;BME280;11052;43.338;25.502;2022-10-22T03:11:53;101266.63;;;4.05;100.00
2268;BME280;11052;43.338;25.502;2022-10-22T03:14:20;101265.03;;;4.15;100.00
2268;BME280;11052;43.338;25.502;2022-10-22T03:16:47;101264.22;;;4.19;100.00
2268;BME280;11052;43.338;25.502;2022-10-22T03:19:15;101256.53;;;4.19;100.00
2268;BME280;11052;43.338;25.502;2022-10-22T03:21:46;101255.66;;;4.17;100.00
2268;BME280;11052;43.338;25.502;2022-10-22T03:24:18;101256.53;;;4.19;100.00
2268;BME280;11052;43.338;25.502;2022-10-22T03:26:48;101265.97;;;4.21;100.00
2268;BME280;11052;43.338;25.502;2022-10-22T03:29:16;101254.06;;;4.26;100.00
2268;BME280;11052;43.338;25.502;2022-10-22T03:31:44;101260.78;;;4.17;100.00
2268;BME280;11052;43.338;25.502;2022-10-22T03:34:12;101261.69;;;4.20;100.00
2268;BME280;11052;43.338;25.502;2022-10-22T03:36:39;101254.00;;;4.22;100.00
2268;BME280;11052;43.338;25.502;2022-10-22T03:39:09;101259.03;;;4.13;100.00
2268;BME280;11052;43.338;25.502;2022-10-22T03:41:39;101259.94;;;4.16;100.00
2268;BME280;11052;43.338;25.502;2022-10-22T03:44:07;101256.50;;;4.14;100.00
2268;BME280;11052;43.338;25.502;2022-10-22T03:46:35;101244.59;;;4.21;100.00
2268;BME280;11052;43.338;25.502;2022-10-22T03:49:02;101249.75;;;4.22;100.00
2268;BME280;11052;43.338;25.502;2022-10-22T03:51:29;101242.09;;;4.27;100.00
2268;BME280;11052;43.338;25.502;2022-10-22T03:53:56;101231.72;;;4.16;100.00
2268;BME280;11052;43.338;25.502;2022-10-22T03:56:25;101228.22;;;4.11;100.00
2268;BME280;11052;43.338;25.502;2022-10-22T03:58:55;101232.47;;;4.08;100.00
2268;BME280;11052;43.338;25.502;2022-10-22T04:01:22;101232.47;;;4.08;100.00
2268;BME280;11052;43.338;25.502;2022-10-22T04:03:50;101229.06;;;4.09;100.00
2268;BME280;11052;43.338;25.502;2022-10-22T04:06:17;101228.28;;;4.17;100.00
2268;BME280;11052;43.338;25.502;2022-10-22T04:08:45;101229.13;;;4.16;100.00
2268;BME280;11052;43.338;25.502;2022-10-22T04:11:13;101230.81;;;4.14;100.00
2268;BME280;11052;43.338;25.502;2022-10-22T04:13:42;101224.00;;;4.16;100.00
2268;BME280;11052;43.338;25.502;2022-10-22T04:16:10;101219.63;;;4.06;100.00
2268;BME280;11052;43.338;25.502;2022-10-22T04:18:39;101228.94;;;4.00;100.00
2268;BME280;11052;43.338;25.502;2022-10-22T04:21:07;101224.69;;;4.00;100.00
2268;BME280;11052;43.338;25.502;2022-10-22T04:23:36;101215.28;;;4.02;100.00
2268;BME280;11052;43.338;25.502;2022-10-22T04:26:05;101210.91;;;3.93;100.00
2268;BME280;11052;43.338;25.502;2022-10-22T04:28:33;101208.34;;;3.93;100.00
2268;BME280;11052;43.338;25.502;2022-10-22T04:31:06;101219.47;;;3.92;100.00
2268;BME280;11052;43.338;25.502;2022-10-22T04:33:34;101222.84;;;3.90;100.00
2268;BME280;11052;43.338;25.502;2022-10-22T04:36:05;101233.97;;;3.90;100.00
2268;BME280;11052;43.338;25.502;2022-10-22T04:38:33;101222.03;;;3.94;100.00
2268;BME280;11052;43.338;25.502;2022-10-22T04:41:08;101227.25;;;4.02;100.00
2268;BME280;11052;43.338;25.502;2022-10-22T04:43:35;101228.06;;;3.96;100.00
2268;BME280;11052;43.338;25.502;2022-10-22T04:46:04;101219.47;;;3.94;100.00
2268;BME280;11052;43.338;25.502;2022-10-22T04:48:34;101218.63;;;3.95;100.00
2268;BME280;11052;43.338;25.502;2022-10-22T04:51:01;101227.19;;;3.95;100.00
2268;BME280;11052;43.338;25.502;2022-10-22T04:53:29;101228.97;;;4.01;100.00
2268;BME280;11052;43.338;25.502;2022-10-22T04:56:08;101229.06;;;4.10;100.00
2268;BME280;11052;43.338;25.502;2022-10-22T04:58:36;101241.19;;;4.23;100.00
2268;BME280;11052;43.338;25.502;2022-10-22T05:01:11;101243.81;;;4.28;100.00
2268;BME280;11052;43.338;25.502;2022-10-22T05:03:38;101246.47;;;4.39;100.00
2268;BME280;11052;43.338;25.502;2022-10-22T05:06:06;101246.53;;;4.45;100.00
2268;BME280;11052;43.338;25.502;2022-10-22T05:08:33;101247.53;;;4.60;100.00
2268;BME280;11052;43.338;25.502;2022-10-22T05:11:01;101255.41;;;4.79;100.00
2268;BME280;11052;43.338;25.502;2022-10-22T05:13:35;101258.94;;;4.90;100.00
2268;BME280;11052;43.338;25.502;2022-10-22T05:16:03;101263.31;;;5.02;100.00
2268;BME280;11052;43.338;25.502;2022-10-22T05:18:33;101263.47;;;5.27;100.00
2268;BME280;11052;43.338;25.502;2022-10-22T05:21:00;101270.47;;;5.47;100.00
2268;BME280;11052;43.338;25.502;2022-10-22T05:23:27;101276.56;;;5.59;100.00
2268;BME280;11052;43.338;25.502;2022-10-22T05:25:55;101269.00;;;5.88;100.00
2268;BME280;11052;43.338;25.502;2022-10-22T05:28:22;101269.97;;;6.18;100.00
2268;BME280;11052;43.338;25.502;2022-10-22T05:30:53;101274.28;;;6.23;100.00
2268;BME280;11052;43.338;25.502;2022-10-22T05:33:20;101267.47;;;6.38;100.00
2268;BME280;11052;43.338;25.502;2022-10-22T05:35:50;101276.13;;;6.66;100.00
2268;BME280;11052;43.338;25.502;2022-10-22T05:38:17;101279.59;;;6.89;100.00
2268;BME280;11052;43.338;25.502;2022-10-22T05:40:45;101276.97;;;7.36;100.00
2268;BME280;11052;43.338;25.502;2022-10-22T05:43:12;101275.13;;;7.81;100.00
2268;BME280;11052;43.338;25.502;2022-10-22T05:45:41;101272.47;;;8.02;100.00
2268;BME280;11052;43.338;25.502;2022-10-22T05:48:08;101270.75;;;8.06;100.00
2268;BME280;11052;43.338;25.502;2022-10-22T05:50:36;101272.53;;;7.92;100.00
2268;BME280;11052;43.338;25.502;2022-10-22T05:53:05;101259.50;;;8.17;100.00
2268;BME280;11052;43.338;25.502;2022-10-22T05:55:35;101252.59;;;8.19;100.00
2268;BME280;11052;43.338;25.502;2022-10-22T05:58:03;101270.66;;;8.24;100.00
2268;BME280;11052;43.338;25.502;2022-10-22T06:00:31;101277.56;;;8.25;100.00
2268;BME280;11052;43.338;25.502;2022-10-22T06:02:59;101262.88;;;8.30;100.00
2268;BME280;11052;43.338;25.502;2022-10-22T06:05:26;101274.88;;;8.51;100.00
2268;BME280;11052;43.338;25.502;2022-10-22T06:07:55;101279.88;;;8.72;100.00
2268;BME280;11052;43.338;25.502;2022-10-22T06:10:24;101278.13;;;8.77;100.00
2268;BME280;11052;43.338;25.502;2022-10-22T06:12:51;101293.53;;;8.91;100.00
2268;BME280;11052;43.338;25.502;2022-10-22T06:15:19;101291.63;;;9.13;100.00
2268;BME280;11052;43.338;25.502;2022-10-22T06:17:46;101284.66;;;9.21;100.00
2268;BME280;11052;43.338;25.502;2022-10-22T06:20:14;101267.34;;;9.29;100.00
2268;BME280;11052;43.338;25.502;2022-10-22T06:22:41;101272.56;;;9.26;100.00
2268;BME280;11052;43.338;25.502;2022-10-22T06:25:08;101278.59;;;9.27;100.00
2268;BME280;11052;43.338;25.502;2022-10-22T06:27:41;101269.91;;;9.34;100.00
2268;BME280;11052;43.338;25.502;2022-10-22T06:30:09;101275.88;;;9.42;100.00
2268;BME280;11052;43.338;25.502;2022-10-22T06:32:37;101269.81;;;9.44;100.00
2268;BME280;11052;43.338;25.502;2022-10-22T06:35:05;101276.66;;;9.48;100.00
2268;BME280;11052;43.338;25.502;2022-10-22T06:37:32;101263.56;;;9.61;100.00
2268;BME280;11052;43.338;25.502;2022-10-22T06:40:00;101266.34;;;9.45;100.00
2268;BME280;11052;43.338;25.502;2022-10-22T06:42:27;101266.34;;;9.44;100.00
2268;BME280;11052;43.338;25.502;2022-10-22T06:44:56;101263.72;;;9.48;100.00
2268;BME280;11052;43.338;25.502;2022-10-22T06:47:23;101267.00;;;9.63;100.00
2268;BME280;11052;43.338;25.502;2022-10-22T06:49:51;101264.28;;;9.75;100.00
2268;BME280;11052;43.338;25.502;2022-10-22T06:52:18;101262.44;;;9.83;100.00
2268;BME280;11052;43.338;25.502;2022-10-22T06:54:45;101256.44;;;9.81;100.00
2268;BME280;11052;43.338;25.502;2022-10-22T06:57:12;101255.56;;;9.82;100.00
2268;BME280;11052;43.338;25.502;2022-10-22T06:59:40;101269.25;;;9.93;100.00
2268;BME280;11052;43.338;25.502;2022-10-22T07:02:09;101277.66;;;10.12;100.00
2268;BME280;11052;43.338;25.502;2022-10-22T07:04:36;101266.31;;;10.22;100.00
2268;BME280;11052;43.338;25.502;2022-10-22T07:07:04;101267.09;;;10.29;100.00
2268;BME280;11052;43.338;25.502;2022-10-22T07:09:31;101270.44;;;10.37;100.00
2268;BME280;11052;43.338;25.502;2022-10-22T07:11:58;101272.72;;;10.58;100.00
2268;BME280;11052;43.338;25.502;2022-10-22T07:14:26;101253.38;;;10.80;100.00
2268;BME280;11052;43.338;25.502;2022-10-22T07:16:53;101253.50;;;11.25;100.00
2268;BME280;11052;43.338;25.502;2022-10-22T07:19:23;101243.53;;;11.48;100.00
2268;BME280;11052;43.338;25.502;2022-10-22T07:21:50;101249.09;;;11.73;100.00
2268;BME280;11052;43.338;25.502;2022-10-22T07:24:22;101237.66;;;11.85;100.00
2268;BME280;11052;43.338;25.502;2022-10-22T07:26:51;101243.22;;;12.08;100.00
2268;BME280;11052;43.338;25.502;2022-10-22T07:29:18;101237.47;;;12.33;100.00
2268;BME280;11052;43.338;25.502;2022-10-22T07:31:46;101233.91;;;12.37;100.00
2268;BME280;11052;43.338;25.502;2022-10-22T07:34:13;101217.03;;;12.55;100.00
2268;BME280;11052;43.338;25.502;2022-10-22T07:36:42;101221.94;;;12.68;100.00
2268;BME280;11052;43.338;25.502;2022-10-22T07:39:10;101222.78;;;13.03;100.00
2268;BME280;11052;43.338;25.502;2022-10-22T07:41:40;101212.53;;;13.31;100.00
2268;BME280;11052;43.338;25.502;2022-10-22T07:44:08;101214.69;;;13.48;100.00
2268;BME280;11052;43.338;25.502;2022-10-22T07:46:36;101211.88;;;13.55;100.00
2268;BME280;11052;43.338;25.502;2022-10-22T07:49:03;101221.03;;;13.70;100.00
2268;BME280;11052;43.338;25.502;2022-10-22T07:51:30;101221.50;;;14.12;100.00
2268;BME280;11052;43.338;25.502;2022-10-22T07:53:59;101200.44;;;14.74;100.00
2268;BME280;11052;43.338;25.502;2022-10-22T07:56:27;101195.75;;;15.35;100.00
2268;BME280;11052;43.338;25.502;2022-10-22T07:58:54;101203.06;;;15.73;100.00
2268;BME280;11052;43.338;25.502;2022-10-22T08:01:21;101197.19;;;15.90;100.00
2268;BME280;11052;43.338;25.502;2022-10-22T08:03:49;101189.13;;;15.96;100.00
2268;BME280;11052;43.338;25.502;2022-10-22T08:06:16;101187.19;;;16.01;100.00
2268;BME280;11052;43.338;25.502;2022-10-22T08:08:43;101185.31;;;16.05;100.00
2268;BME280;11052;43.338;25.502;2022-10-22T08:11:13;101199.13;;;16.09;100.00
2268;BME280;11052;43.338;25.502;2022-10-22T08:13:40;101189.97;;;15.97;100.00
2268;BME280;11052;43.338;25.502;2022-10-22T08:16:07;101190.84;;;15.97;100.00
2268;BME280;11052;43.338;25.502;2022-10-22T08:18:34;101192.03;;;15.89;100.00
2268;BME280;11052;43.338;25.502;2022-10-22T08:21:03;101189.13;;;15.96;100.00
2268;BME280;11052;43.338;25.502;2022-10-22T08:23:30;101187.72;;;15.88;100.00
2268;BME280;11052;43.338;25.502;2022-10-22T08:25:58;101192.41;;;16.01;100.00
2268;BME280;11052;43.338;25.502;2022-10-22T08:28:29;101180.50;;;16.16;100.00
2268;BME280;11052;43.338;25.502;2022-10-22T08:31:00;101182.66;;;16.28;100.00
2268;BME280;11052;43.338;25.502;2022-10-22T08:33:27;101176.66;;;16.47;100.00
2268;BME280;11052;43.338;25.502;2022-10-22T08:35:55;101181.78;;;16.71;100.00
2268;BME280;11052;43.338;25.502;2022-10-22T08:38:22;101184.03;;;16.81;100.00
2268;BME280;11052;43.338;25.502;2022-10-22T08:40:51;101179.84;;;16.97;100.00
2268;BME280;11052;43.338;25.502;2022-10-22T08:43:45;101180.44;;;17.24;100.00
2268;BME280;11052;43.338;25.502;2022-10-22T08:46:26;101186.34;;;17.48;100.00
2268;BME280;11052;43.338;25.502;2022-10-22T08:49:00;101187.53;;;17.41;93.10
2268;BME280;11052;43.338;25.502;2022-10-22T08:51:31;101184.28;;;17.54;93.10
2268;BME280;11052;43.338;25.502;2022-10-22T08:54:09;101181.41;;;17.60;93.24
2268;BME280;11052;43.338;25.502;2022-10-22T08:56:43;101180.09;;;17.71;85.85
2268;BME280;11052;43.338;25.502;2022-10-22T08:59:19;101185.00;;;17.78;83.75
2268;BME280;11052;43.338;25.502;2022-10-22T09:01:52;101175.34;;;17.97;79.65
2268;BME280;11052;43.338;25.502;2022-10-22T09:04:23;101173.09;;;18.09;73.87
2268;BME280;11052;43.338;25.502;2022-10-22T09:06:54;101162.81;;;18.04;76.25
2268;BME280;11052;43.338;25.502;2022-10-22T09:09:26;101169.34;;;18.31;79.83
2268;BME280;11052;43.338;25.502;2022-10-22T09:11:57;101161.81;;;18.60;74.25
2268;BME280;11052;43.338;25.502;2022-10-22T09:14:27;101157.06;;;18.68;69.40
2268;BME280;11052;43.338;25.502;2022-10-22T09:17:13;101151.13;;;18.64;68.61
2268;BME280;11052;43.338;25.502;2022-10-22T09:19:49;101149.88;;;18.89;73.56
2268;BME280;11052;43.338;25.502;2022-10-22T09:22:31;101154.84;;;19.11;69.51
2268;BME280;11052;43.338;25.502;2022-10-22T09:25:13;101145.19;;;19.11;64.56
2268;BME280;11052;43.338;25.502;2022-10-22T09:27:43;101145.88;;;19.15;63.73
2268;BME280;11052;43.338;25.502;2022-10-22T09:30:28;101153.06;;;19.28;66.36
2268;BME280;11052;43.338;25.502;2022-10-22T09:32:59;101141.41;;;19.50;64.77
2268;BME280;11052;43.338;25.502;2022-10-22T09:35:28;101133.47;;;19.67;64.46
2268;BME280;11052;43.338;25.502;2022-10-22T09:38:05;101129.06;;;19.68;60.14
2268;BME280;11052;43.338;25.502;2022-10-22T09:40:42;101120.59;;;19.78;65.86
2268;BME280;11052;43.338;25.502;2022-10-22T09:43:11;101108.38;;;19.93;62.74
2268;BME280;11052;43.338;25.502;2022-10-22T09:45:41;101100.41;;;20.24;61.99
2268;BME280;11052;43.338;25.502;2022-10-22T09:48:17;101100.13;;;20.29;56.00
2268;BME280;11052;43.338;25.502;2022-10-22T09:50:48;101099.31;;;20.13;55.09
2268;BME280;11052;43.338;25.502;2022-10-22T09:53:19;101098.41;;;19.98;55.56
2268;BME280;11052;43.338;25.502;2022-10-22T09:55:51;101102.56;;;20.02;55.86
2268;BME280;11052;43.338;25.502;2022-10-22T09:58:18;101089.97;;;20.07;54.80
2268;BME280;11052;43.338;25.502;2022-10-22T10:00:53;101083.66;;;20.25;56.69
2268;BME280;11052;43.338;25.502;2022-10-22T10:03:22;101079.59;;;20.66;55.95
2268;BME280;11052;43.338;25.502;2022-10-22T10:05:56;101072.81;;;20.76;54.21
2268;BME280;11052;43.338;25.502;2022-10-22T10:08:28;101081.19;;;20.68;52.80
2268;BME280;11052;43.338;25.502;2022-10-22T10:10:58;101086.63;;;20.65;54.23
2268;BME280;11052;43.338;25.502;2022-10-22T10:13:40;101083.91;;;20.67;53.15
2268;BME280;11052;43.338;25.502;2022-10-22T10:16:24;101080.81;;;20.74;53.27
2268;BME280;11052;43.338;25.502;2022-10-22T10:19:06;101079.50;;;20.95;51.91
2268;BME280;11052;43.338;25.502;2022-10-22T10:21:40;101071.06;;;21.33;52.26
2268;BME280;11052;43.338;25.502;2022-10-22T10:24:21;101069.66;;;21.69;48.29
2268;BME280;11052;43.338;25.502;2022-10-22T10:26:58;101063.19;;;21.60;48.91
2268;BME280;11052;43.338;25.502;2022-10-22T10:29:40;101061.72;;;21.42;48.32
2268;BME280;11052;43.338;25.502;2022-10-22T10:32:25;101060.59;;;21.32;48.43
2268;BME280;11052;43.338;25.502;2022-10-22T10:35:10;101065.50;;;21.38;47.78
2268;BME280;11052;43.338;25.502;2022-10-22T10:37:45;101060.56;;;21.17;48.65
2268;BME280;11052;43.338;25.502;2022-10-22T10:40:25;101060.47;;;21.19;49.79
2268;BME280;11052;43.338;25.502;2022-10-22T10:42:57;101056.38;;;21.29;48.29
2268;BME280;11052;43.338;25.502;2022-10-22T10:45:31;101052.31;;;21.23;48.34
2268;BME280;11052;43.338;25.502;2022-10-22T10:48:29;101050.41;;;21.40;47.37
2268;BME280;11052;43.338;25.502;2022-10-22T10:51:07;101040.13;;;21.49;48.29
2268;BME280;11052;43.338;25.502;2022-10-22T10:53:51;101037.75;;;21.59;47.95
2268;BME280;11052;43.338;25.502;2022-10-22T10:56:32;101033.69;;;21.80;49.70
2268;BME280;11052;43.338;25.502;2022-10-22T10:59:18;101026.56;;;21.95;49.21
2268;BME280;11052;43.338;25.502;2022-10-22T11:02:37;101017.38;;;22.28;47.93
2268;BME280;11052;43.338;25.502;2022-10-22T11:05:28;101012.22;;;22.39;47.40
2268;BME280;11052;43.338;25.502;2022-10-22T11:08:10;101008.53;;;22.41;47.02
2268;BME280;11052;43.338;25.502;2022-10-22T11:10:44;101009.16;;;22.32;46.06
2268;BME280;11052;43.338;25.502;2022-10-22T11:13:17;101006.31;;;22.35;45.67
2268;BME280;11052;43.338;25.502;2022-10-22T11:15:50;100995.91;;;22.19;44.81
2268;BME280;11052;43.338;25.502;2022-10-22T11:18:24;100997.31;;;22.25;45.09
2268;BME280;11052;43.338;25.502;2022-10-22T11:21:18;100987.28;;;22.30;45.63
2268;BME280;11052;43.338;25.502;2022-10-22T11:24:04;100984.31;;;22.35;45.11
2268;BME280;11052;43.338;25.502;2022-10-22T11:26:43;100972.38;;;22.42;44.73
2268;BME280;11052;43.338;25.502;2022-10-22T11:29:20;100961.72;;;22.43;45.41
2268;BME280;11052;43.338;25.502;2022-10-22T11:32:11;100956.22;;;22.46;44.80
2268;BME280;11052;43.338;25.502;2022-10-22T11:34:45;100954.00;;;22.53;44.90
2268;BME280;11052;43.338;25.502;2022-10-22T11:37:15;100946.03;;;22.66;44.41
2268;BME280;11052;43.338;25.502;2022-10-22T11:39:49;100942.84;;;22.86;44.06
2268;BME280;11052;43.338;25.502;2022-10-22T11:42:29;100936.47;;;23.01;43.33
2268;BME280;11052;43.338;25.502;2022-10-22T11:45:37;100929.47;;;23.13;43.11
2268;BME280;11052;43.338;25.502;2022-10-22T11:48:13;100932.47;;;23.32;42.45
2268;BME280;11052;43.338;25.502;2022-10-22T11:50:48;100931.09;;;23.27;42.81
2268;BME280;11052;43.338;25.502;2022-10-22T11:53:25;100932.28;;;23.23;42.78
2268;BME280;11052;43.338;25.502;2022-10-22T11:56:20;100925.34;;;23.09;43.02
2268;BME280;11052;43.338;25.502;2022-10-22T11:58:48;100923.03;;;23.04;42.92
2268;BME280;11052;43.338;25.502;2022-10-22T12:01:39;100913.84;;;22.97;43.49
2268;BME280;11052;43.338;25.502;2022-10-22T12:04:19;100911.34;;;22.83;42.77
2268;BME280;11052;43.338;25.502;2022-10-22T12:06:57;100907.41;;;22.88;44.23
2268;BME280;11052;43.338;25.502;2022-10-22T12:09:28;100908.38;;;22.87;44.04
2268;BME280;11052;43.338;25.502;2022-10-22T12:12:13;100902.47;;;22.84;43.92
2268;BME280;11052;43.338;25.502;2022-10-22T12:14:52;100891.25;;;22.80;43.32
2268;BME280;11052;43.338;25.502;2022-10-22T12:17:20;100893.06;;;22.67;43.16
2268;BME280;11052;43.338;25.502;2022-10-22T12:19:50;100885.97;;;22.68;43.62
2268;BME280;11052;43.338;25.502;2022-10-22T12:22:22;100891.25;;;22.68;43.25
2268;BME280;11052;43.338;25.502;2022-10-22T12:25:00;100891.88;;;22.71;43.45
2268;BME280;11052;43.338;25.502;2022-10-22T12:27:42;100897.78;;;22.75;43.99
2268;BME280;11052;43.338;25.502;2022-10-22T12:30:26;100888.50;;;22.82;42.97
2268;BME280;11052;43.338;25.502;2022-10-22T12:32:55;100881.31;;;22.84;44.52
2268;BME280;11052;43.338;25.502;2022-10-22T12:35:25;100878.66;;;22.84;43.97
2268;BME280;11052;43.338;25.502;2022-10-22T12:37:55;100870.50;;;22.74;42.90
2268;BME280;11052;43.338;25.502;2022-10-22T12:40:26;100876.88;;;22.59;42.80
2268;BME280;11052;43.338;25.502;2022-10-22T12:42:54;100872.44;;;22.60;41.69
2268;BME280;11052;43.338;25.502;2022-10-22T12:45:22;100867.75;;;22.76;41.93
2268;BME280;11052;43.338;25.502;2022-10-22T12:47:56;100859.66;;;22.79;41.26
2268;BME280;11052;43.338;25.502;2022-10-22T12:50:33;100857.63;;;22.70;42.21
2268;BME280;11052;43.338;25.502;2022-10-22T12:53:04;100866.28;;;22.72;42.59
2268;BME280;11052;43.338;25.502;2022-10-22T12:59:04;100873.66;;;22.92;40.38
2268;BME280;11052;43.338;25.502;2022-10-22T13:01:36;100862.31;;;23.03;40.40
2268;BME280;11052;43.338;25.502;2022-10-22T13:04:36;100861.13;;;23.07;41.60
2268;BME280;11052;43.338;25.502;2022-10-22T13:07:16;100852.25;;;23.08;41.12
2268;BME280;11052;43.338;25.502;2022-10-22T13:09:46;100846.09;;;23.07;40.79
2268;BME280;11052;43.338;25.502;2022-10-22T13:12:23;100848.19;;;23.15;41.20
2268;BME280;11052;43.338;25.502;2022-10-22T13:14:52;100847.22;;;23.16;41.43
2268;BME280;11052;43.338;25.502;2022-10-22T13:17:37;100835.63;;;23.06;39.75
2268;BME280;11052;43.338;25.502;2022-10-22T13:20:16;100836.25;;;23.09;40.20